INFORMAÇÕES DO AERODROMO
Icao Aerodromo GMME Nome do Aerodromo Rabat-Salé Airport Cidade Rabat
Código GPS GMME Elevação Média 276 ft Tipo de Aerodromo Aeroporto Médio Porte

INFORMAÇÃO DE PISTA
Pista 04 Comprimento da Pista 11483 ft Largura da Pista 148 ft
Elevação da Pista 273 ft Distância de Area de Escape da Pista 0 ft Orientação da Pista 31
Pista 22 Comprimento da Pista 11483 ft Largura da Pista 148 ft
Elevação da Pista 240 ft Distância de Area de Escape da Pista 0 ft Orientação da Pista 211

FREQUÊNCIAS DO AERODROMO
Tipo APP Nome APP Frequência 118.9 MHZ
Tipo TWR Nome TWR Frequência 118.3 MHZ

INFORMAÇÕES DE NAVEGAÇÃO PRÓXIMO AO AERODROMO
Tipo VOR-DME Nome Rabat Frequência 116500 KHZ
Tipo NDB Nome Rabat Frequência 332 KHZ

Informações de Meteorologia(METAR atual)
METAR DE GMME
ADDS - METARS form results

(0903 UTC 22 February 2019)
Data provider http://aviationweather.gov/metar/data/
 
METAR text: GMME 220900Z VRB01KT 8000 NSC 17/03 Q1026 NOSIG
Conditions at: GMME (RABAT/SALE (RMAF, MA) observed 0900 UTC 22 February 2019
Temperature: 17.0°C (63°F)
Dewpoint: 3.0°C (37°F) [RH = 39%]
Pressure (altimeter): 30.30 inches Hg (1026.0 mb)
Winds: variable direction winds at 1 MPH (1 knots; 0.5 m/s)
Visibility: 5 miles ( 8 km)
Ceiling: at least 12,000 feet AGL
Clouds: sky clear below 12,000 feet AGL
Weather: no significant weather observed at this time

METAR text: GMME 220830Z VRB02KT 8000 NSC 15/03 Q1025 NOSIG
Conditions at: GMME (RABAT/SALE (RMAF, MA) observed 0830 UTC 22 February 2019
Temperature: 15.0°C (59°F)
Dewpoint: 3.0°C (37°F) [RH = 44%]
Pressure (altimeter): 30.27 inches Hg (1025.0 mb)
Winds: variable direction winds at 2 MPH (2 knots; 1.0 m/s)
Visibility: 5 miles ( 8 km)
Ceiling: at least 12,000 feet AGL
Clouds: sky clear below 12,000 feet AGL
Weather: no significant weather observed at this time

Forecast for: GMME (RABAT/SALE (RMAF, MA)
Text: TAF GMME 220500Z 2206/2312 34008KT 8000 NSC
Forecast period: 0600 UTC 22 February 2019 to 1200 UTC 23 February 2019
Forecast type: FROM: standard forecast or significant change
Winds: from the NNW (340 degrees) at 9 MPH (8 knots; 4.1 m/s)
Visibility: 5 miles (8 km)
Ceiling: unknown
Clouds: missing
Weather: no significant weather forecast for this period
Text: PROB30
Forecast period: 0200 to 0800 UTC 23 February 2019
Forecast type: TEMPORARY: The following changes expected for less than half the time period
Winds: variable direction winds at 2 MPH (2 knots; 1.0 m/s)
Visibility: 1.86 miles (2.99 km)
Ceiling: at least 12,000 feet AGL
Clouds: scattered clouds at 800 feet AGL
Weather: BR  (mist)

MAPA DO AERODROMO


Desenvolvido por Virtual Airlines Manager




Modificado por Servidor Brasil Amigos